createdAt,value
2022-12-25T00:01:36.108Z,7.95
2022-12-25T00:04:03.930Z,7.97
2022-12-25T00:06:31.818Z,7.78
2022-12-25T00:08:59.579Z,7.84
2022-12-25T00:11:27.505Z,7.77
2022-12-25T00:13:56.811Z,7.81
2022-12-25T00:16:27.051Z,7.76
2022-12-25T00:18:55.317Z,7.75
2022-12-25T00:21:23.586Z,7.71
2022-12-25T00:23:55.300Z,7.76
2022-12-25T00:26:23.708Z,7.85
2022-12-25T00:28:53.830Z,7.82
2022-12-25T00:31:24.010Z,7.88
2022-12-25T00:33:53.577Z,7.87
2022-12-25T00:36:23.305Z,7.89
2022-12-25T00:38:51.185Z,7.91
2022-12-25T00:41:42.011Z,7.90
2022-12-25T00:44:12.842Z,7.90
2022-12-25T00:46:42.932Z,7.99
2022-12-25T00:49:11.168Z,7.95
2022-12-25T00:51:38.913Z,8.00
2022-12-25T00:54:06.747Z,7.97
2022-12-25T00:56:35.028Z,7.96
2022-12-25T00:59:03.174Z,7.96
2022-12-25T01:01:30.986Z,8.08
2022-12-25T01:04:00.597Z,8.09
2022-12-25T01:06:28.886Z,8.04
2022-12-25T01:09:14.663Z,7.95
2022-12-25T01:11:42.513Z,7.92
2022-12-25T01:14:10.522Z,8.06
2022-12-25T01:16:38.676Z,8.03
2022-12-25T01:19:09.313Z,8.03
2022-12-25T01:21:37.070Z,7.98
2022-12-25T01:24:06.008Z,7.86
2022-12-25T01:26:33.934Z,7.74
2022-12-25T01:29:02.542Z,7.65
2022-12-25T01:31:30.399Z,7.56
2022-12-25T01:33:58.173Z,7.49
2022-12-25T01:36:27.702Z,7.39
2022-12-25T01:38:55.933Z,7.36
2022-12-25T01:41:26.274Z,7.37
2022-12-25T01:44:00.892Z,7.44
2022-12-25T01:46:28.757Z,7.38
2022-12-25T01:49:00.143Z,7.48
2022-12-25T01:51:35.003Z,7.49
2022-12-25T01:54:06.623Z,7.49
2022-12-25T01:56:36.015Z,7.48
2022-12-25T01:59:04.436Z,7.55
2022-12-25T02:01:32.387Z,7.56
2022-12-25T02:04:06.830Z,7.55
2022-12-25T02:06:37.039Z,7.62
2022-12-25T02:09:05.434Z,7.55
2022-12-25T02:11:50.808Z,7.61
2022-12-25T02:14:18.897Z,7.59
2022-12-25T02:16:57.301Z,7.57
2022-12-25T02:19:38.904Z,7.59
2022-12-25T02:22:24.119Z,7.71
2022-12-25T02:25:08.019Z,7.59
2022-12-25T02:28:02.114Z,7.55
2022-12-25T02:30:36.856Z,7.56
2022-12-25T02:33:26.280Z,7.56
2022-12-25T02:35:57.961Z,7.59
2022-12-25T02:38:32.662Z,7.58
2022-12-25T02:41:05.434Z,7.64
2022-12-25T02:43:57.251Z,7.70
2022-12-25T02:46:44.643Z,7.73
2022-12-25T02:49:33.952Z,7.78
2022-12-25T02:52:23.431Z,7.81
2022-12-25T02:55:13.260Z,7.78
2022-12-25T02:58:02.963Z,7.81
2022-12-25T03:00:51.028Z,7.87
2022-12-25T03:03:38.545Z,7.87
2022-12-25T03:06:22.406Z,7.88
2022-12-25T03:09:16.288Z,7.82
2022-12-25T03:11:45.997Z,7.77
2022-12-25T03:14:31.829Z,7.78
2022-12-25T03:17:01.755Z,7.63
2022-12-25T03:20:01.121Z,7.70
2022-12-25T03:22:48.741Z,7.78
2022-12-25T03:25:35.547Z,7.75
2022-12-25T03:28:05.267Z,7.77
2022-12-25T03:30:59.449Z,7.79
2022-12-25T03:33:45.145Z,7.84
2022-12-25T03:36:23.434Z,7.78
2022-12-25T03:39:17.494Z,7.75
2022-12-25T03:42:07.501Z,7.78
2022-12-25T03:44:59.885Z,7.75
2022-12-25T03:48:01.860Z,7.75
2022-12-25T03:50:52.443Z,7.75
2022-12-25T03:53:42.692Z,7.66
2022-12-25T03:56:28.550Z,7.63
2022-12-25T03:59:22.849Z,7.43
2022-12-25T04:02:08.778Z,7.39
2022-12-25T04:04:53.901Z,7.35
2022-12-25T04:07:40.590Z,7.33
2022-12-25T04:10:27.287Z,7.34
2022-12-25T04:13:12.459Z,7.36
2022-12-25T04:15:58.016Z,7.38
2022-12-25T04:18:43.275Z,7.40
2022-12-25T04:21:28.550Z,7.39
2022-12-25T04:24:17.678Z,7.46
2022-12-25T04:27:03.095Z,7.44
2022-12-25T04:29:48.451Z,7.47
2022-12-25T04:32:33.973Z,7.37
2022-12-25T04:35:19.281Z,7.38
2022-12-25T04:37:47.090Z,7.43
2022-12-25T04:40:16.867Z,7.44
2022-12-25T04:42:44.696Z,7.38
2022-12-25T04:45:12.979Z,7.39
2022-12-25T04:47:40.719Z,7.31
2022-12-25T04:50:09.395Z,7.52
2022-12-25T04:52:38.132Z,7.39
2022-12-25T04:55:07.329Z,7.47
2022-12-25T04:57:37.080Z,7.35
2022-12-25T05:00:07.156Z,7.37
2022-12-25T05:02:35.389Z,7.29
2022-12-25T05:05:03.308Z,7.33
2022-12-25T05:07:31.039Z,7.32
2022-12-25T05:09:59.100Z,7.31
2022-12-25T05:12:26.920Z,7.30
2022-12-25T05:14:56.036Z,7.24
2022-12-25T05:17:23.865Z,7.25
2022-12-25T05:19:51.666Z,7.23
2022-12-25T05:22:19.578Z,7.24
2022-12-25T05:24:47.327Z,7.22
2022-12-25T05:27:15.950Z,7.13
2022-12-25T05:29:43.913Z,7.15
2022-12-25T05:32:13.081Z,7.20
2022-12-25T05:34:40.879Z,7.04
2022-12-25T05:37:08.628Z,7.17
2022-12-25T05:39:37.075Z,7.24
2022-12-25T05:42:04.969Z,7.31
2022-12-25T05:44:32.713Z,7.27
2022-12-25T05:47:00.495Z,7.25
2022-12-25T05:49:29.587Z,7.30
2022-12-25T05:51:57.387Z,7.28
2022-12-25T05:54:25.251Z,7.19
2022-12-25T05:56:52.965Z,7.15
2022-12-25T05:59:20.674Z,7.06
2022-12-25T06:01:48.646Z,7.07
2022-12-25T06:04:16.543Z,6.97
2022-12-25T06:06:45.721Z,6.86
2022-12-25T06:09:14.621Z,6.73
2022-12-25T06:11:42.489Z,6.58
2022-12-25T06:14:12.574Z,6.61
2022-12-25T06:16:40.592Z,6.63
2022-12-25T06:19:09.201Z,6.70
2022-12-25T06:21:37.097Z,6.57
2022-12-25T06:24:07.057Z,6.72
2022-12-25T06:26:34.907Z,6.67
2022-12-25T06:29:02.661Z,6.64
2022-12-25T06:31:30.772Z,6.72
2022-12-25T06:33:58.582Z,6.78
2022-12-25T06:36:29.260Z,6.75
2022-12-25T06:38:57.809Z,6.75
2022-12-25T06:41:28.977Z,6.80
2022-12-25T06:43:59.317Z,6.91
2022-12-25T06:46:29.637Z,6.83
2022-12-25T06:48:59.941Z,6.87
2022-12-25T06:51:30.394Z,6.96
2022-12-25T06:53:58.545Z,7.07
2022-12-25T06:56:29.446Z,7.08
2022-12-25T06:58:59.147Z,7.04
2022-12-25T07:01:30.225Z,7.09
2022-12-25T07:04:00.755Z,6.84
2022-12-25T07:06:28.711Z,6.95
2022-12-25T07:08:56.558Z,6.94
2022-12-25T07:11:25.118Z,7.05
2022-12-25T07:13:54.386Z,7.05
2022-12-25T07:16:22.241Z,6.98
2022-12-25T07:18:50.492Z,6.95
2022-12-25T07:21:21.232Z,7.00
2022-12-25T07:23:51.512Z,6.88
2022-12-25T07:26:19.385Z,7.03
2022-12-25T07:28:47.343Z,7.09
2022-12-25T07:31:18.042Z,7.06
2022-12-25T07:33:47.375Z,7.21
2022-12-25T07:36:16.115Z,7.20
2022-12-25T07:38:43.989Z,7.24
2022-12-25T07:41:12.902Z,7.06
2022-12-25T07:43:40.907Z,6.95
2022-12-25T07:46:09.431Z,6.92
2022-12-25T07:48:39.833Z,6.80
2022-12-25T07:51:09.237Z,7.03
2022-12-25T07:53:37.411Z,6.98
2022-12-25T07:56:07.789Z,7.13
2022-12-25T07:58:36.226Z,7.11
2022-12-25T08:01:06.872Z,6.98
2022-12-25T08:03:35.882Z,7.05
2022-12-25T08:06:07.114Z,7.16
2022-12-25T08:08:35.728Z,7.00
2022-12-25T08:11:03.819Z,7.03
2022-12-25T08:13:32.703Z,7.01
2022-12-25T08:16:02.133Z,7.08
2022-12-25T08:18:30.561Z,7.17
2022-12-25T08:21:03.167Z,7.07
2022-12-25T08:23:34.699Z,7.00
2022-12-25T08:26:05.424Z,7.06
2022-12-25T08:28:34.746Z,7.11
2022-12-25T08:31:07.837Z,7.16
2022-12-25T08:33:36.347Z,7.24
2022-12-25T08:36:04.745Z,7.24
2022-12-25T08:38:33.951Z,7.11
2022-12-25T08:41:01.802Z,6.68
2022-12-25T08:43:29.844Z,7.00
2022-12-25T08:45:57.856Z,6.80
2022-12-25T08:48:25.871Z,6.75
2022-12-25T08:50:54.551Z,7.05
2022-12-25T08:53:23.326Z,6.97
2022-12-25T08:55:58.404Z,6.74
2022-12-25T08:58:26.711Z,6.56
2022-12-25T09:00:55.175Z,6.43
2022-12-25T09:03:23.488Z,6.57
2022-12-25T09:05:51.574Z,6.65
2022-12-25T09:08:20.180Z,6.37
2022-12-25T09:10:47.958Z,6.65
2022-12-25T09:13:17.357Z,6.72
2022-12-25T09:15:45.131Z,6.77
2022-12-25T09:18:12.964Z,6.83
2022-12-25T09:20:40.681Z,6.78
2022-12-25T09:23:13.552Z,6.89
2022-12-25T09:25:42.132Z,7.04
2022-12-25T09:28:09.914Z,6.86
2022-12-25T09:30:39.129Z,6.73
2022-12-25T09:33:07.051Z,7.00
2022-12-25T09:35:34.826Z,7.05
2022-12-25T09:38:02.695Z,7.14
2022-12-25T09:40:33.142Z,7.28
2022-12-25T09:43:02.706Z,7.40
2022-12-25T09:45:35.846Z,7.52
2022-12-25T09:48:05.521Z,6.96
2022-12-25T09:50:42.877Z,6.85
2022-12-25T09:53:16.708Z,7.08
2022-12-25T09:56:01.540Z,7.02
2022-12-25T09:58:31.581Z,6.98
2022-12-25T10:01:05.302Z,6.90
2022-12-25T10:03:52.129Z,7.09
2022-12-25T10:06:23.884Z,6.98
2022-12-25T10:09:09.322Z,7.07
2022-12-25T10:11:53.808Z,7.27
2022-12-25T10:14:30.890Z,7.37
2022-12-25T10:17:09.895Z,7.61
2022-12-25T10:19:47.264Z,7.69
2022-12-25T10:22:21.056Z,7.54
2022-12-25T10:24:52.076Z,8.05
2022-12-25T10:27:26.074Z,7.71
2022-12-25T10:29:55.078Z,8.08
2022-12-25T10:32:24.004Z,8.13
2022-12-25T10:34:53.174Z,7.88
2022-12-25T10:37:20.936Z,8.09
2022-12-25T10:39:48.717Z,7.97
2022-12-25T10:42:29.496Z,8.04
2022-12-25T10:44:59.208Z,8.20
2022-12-25T10:47:30.097Z,8.13
2022-12-25T10:50:00.008Z,8.03
2022-12-25T10:52:29.533Z,8.03
2022-12-25T10:54:57.724Z,8.14
2022-12-25T10:57:28.038Z,8.12
2022-12-25T10:59:57.650Z,7.95
2022-12-25T11:02:28.563Z,7.72
2022-12-25T11:05:06.546Z,7.82
2022-12-25T11:07:46.667Z,7.65
2022-12-25T11:10:23.424Z,7.82
2022-12-25T11:12:51.789Z,8.00
2022-12-25T11:15:36.748Z,8.11
2022-12-25T11:18:06.135Z,8.26
2022-12-25T11:20:35.829Z,8.24
2022-12-25T11:23:10.423Z,8.25
2022-12-25T11:25:38.313Z,8.48
2022-12-25T11:28:07.851Z,8.61
2022-12-25T11:30:37.239Z,8.84
2022-12-25T11:33:08.245Z,8.89
2022-12-25T11:35:45.971Z,9.09
2022-12-25T11:38:13.841Z,9.16
2022-12-25T11:40:45.698Z,9.23
2022-12-25T11:43:19.697Z,9.38
2022-12-25T11:45:51.624Z,9.37
2022-12-25T11:48:22.857Z,9.30
2022-12-25T11:50:56.646Z,9.38
2022-12-25T11:53:30.867Z,9.44
2022-12-25T11:56:02.788Z,9.44
2022-12-25T11:58:37.093Z,9.71
2022-12-25T12:01:10.349Z,9.85
2022-12-25T12:03:42.124Z,9.90
2022-12-25T12:06:18.666Z,9.87
2022-12-25T12:08:49.395Z,9.86
2022-12-25T12:11:22.712Z,10.13
2022-12-25T12:14:03.390Z,10.06
2022-12-25T12:16:32.071Z,10.26
2022-12-25T12:18:59.837Z,10.13
2022-12-25T12:21:31.517Z,10.19
2022-12-25T12:24:05.138Z,10.53
2022-12-25T12:26:38.066Z,10.88
2022-12-25T12:29:08.797Z,10.71
2022-12-25T12:31:42.727Z,10.40
2022-12-25T12:34:22.852Z,10.62
2022-12-25T12:36:53.897Z,10.58
2022-12-25T12:39:33.253Z,10.42
2022-12-25T12:42:01.411Z,10.47
2022-12-25T12:44:34.669Z,10.60
2022-12-25T12:47:02.621Z,10.65
2022-12-25T12:49:33.698Z,10.76
2022-12-25T12:52:07.953Z,10.58
2022-12-25T12:54:55.861Z,10.82
2022-12-25T12:57:27.216Z,10.72
2022-12-25T12:59:54.990Z,10.95
2022-12-25T13:02:45.454Z,10.98
2022-12-25T13:05:21.267Z,11.15
2022-12-25T13:07:58.144Z,10.80
2022-12-25T13:10:31.799Z,10.79
2022-12-25T13:13:03.161Z,10.38
2022-12-25T13:15:33.943Z,10.50
2022-12-25T13:18:04.760Z,10.61
2022-12-25T13:20:41.517Z,10.59
2022-12-25T13:23:26.439Z,10.50
2022-12-25T13:25:55.254Z,10.31
2022-12-25T13:28:28.610Z,10.30
2022-12-25T13:31:03.584Z,10.12
2022-12-25T13:33:31.567Z,10.20
2022-12-25T13:35:59.702Z,10.01
2022-12-25T13:38:29.933Z,9.88
2022-12-25T13:41:16.440Z,9.88
2022-12-25T13:43:45.975Z,9.92
2022-12-25T13:46:14.979Z,9.91
2022-12-25T13:48:43.419Z,9.74
2022-12-25T13:51:16.877Z,9.76
2022-12-25T13:53:46.397Z,9.77
2022-12-25T13:56:16.633Z,9.76
2022-12-25T13:58:48.502Z,9.75
2022-12-25T14:01:18.673Z,9.75
2022-12-25T14:03:48.905Z,9.89
2022-12-25T14:06:20.159Z,9.82
2022-12-25T14:08:49.911Z,9.74
2022-12-25T14:11:21.577Z,9.82
2022-12-25T14:13:52.250Z,9.71
2022-12-25T14:16:21.945Z,9.60
2022-12-25T14:18:55.242Z,9.57
2022-12-25T14:21:28.539Z,9.62
2022-12-25T14:23:57.844Z,9.45
2022-12-25T14:26:28.328Z,9.23
2022-12-25T14:29:12.266Z,9.16
2022-12-25T14:31:45.169Z,9.06
2022-12-25T14:34:17.037Z,9.03
2022-12-25T14:36:44.913Z,9.07
2022-12-25T14:39:28.433Z,9.03
2022-12-25T14:41:56.378Z,9.06
2022-12-25T14:44:33.831Z,8.99
2022-12-25T14:47:06.780Z,9.03
2022-12-25T14:49:34.617Z,9.00
2022-12-25T14:52:09.420Z,8.98
2022-12-25T14:54:38.660Z,8.80
2022-12-25T14:57:06.529Z,8.61
2022-12-25T14:59:34.339Z,8.60
2022-12-25T15:02:02.834Z,8.44
2022-12-25T15:04:31.175Z,8.39
2022-12-25T15:07:01.724Z,8.38
2022-12-25T15:09:30.827Z,8.34
2022-12-25T15:12:00.525Z,8.20
2022-12-25T15:14:30.060Z,8.20
2022-12-25T15:17:00.555Z,8.24
2022-12-25T15:19:37.345Z,8.32
2022-12-25T15:22:06.324Z,8.21
2022-12-25T15:24:34.094Z,8.22
2022-12-25T15:27:05.345Z,8.28
2022-12-25T15:30:07.976Z,8.33
2022-12-25T15:32:23.211Z,8.25
2022-12-25T15:34:53.030Z,8.18
2022-12-25T15:37:20.848Z,8.05
2022-12-25T15:39:49.079Z,7.76
2022-12-25T15:42:20.170Z,7.70
2022-12-25T15:44:48.012Z,7.56
2022-12-25T15:47:17.853Z,7.50
2022-12-25T15:49:45.650Z,7.39
2022-12-25T15:52:17.083Z,7.42
2022-12-25T15:54:44.964Z,7.39
2022-12-25T15:57:20.596Z,7.46
2022-12-25T15:59:48.453Z,7.43
2022-12-25T16:02:18.461Z,7.50
2022-12-25T16:04:47.091Z,7.49
2022-12-25T16:07:17.163Z,7.40
2022-12-25T16:09:45.131Z,7.38
2022-12-25T16:12:13.174Z,7.21
2022-12-25T16:14:42.852Z,7.27
2022-12-25T16:17:13.325Z,7.29
2022-12-25T16:19:41.033Z,7.42
2022-12-25T16:22:12.933Z,7.49
2022-12-25T16:24:40.785Z,7.45
2022-12-25T16:27:08.558Z,7.37
2022-12-25T16:29:36.331Z,7.33
2022-12-25T16:32:05.827Z,7.26
2022-12-25T16:34:33.546Z,7.16
2022-12-25T16:37:01.343Z,7.19
2022-12-25T16:39:29.111Z,7.23
2022-12-25T16:41:57.134Z,7.19
2022-12-25T16:44:24.929Z,7.20
2022-12-25T16:46:52.986Z,7.13
2022-12-25T16:49:22.125Z,7.21
2022-12-25T16:51:49.913Z,7.14
2022-12-25T16:54:17.709Z,7.15
2022-12-25T16:56:45.794Z,7.15
2022-12-25T16:59:13.593Z,7.19
2022-12-25T17:01:43.285Z,7.20
2022-12-25T17:04:11.363Z,7.20
2022-12-25T17:06:41.028Z,7.13
2022-12-25T17:09:08.737Z,6.97
2022-12-25T17:11:36.565Z,6.88
2022-12-25T17:14:06.263Z,6.79
2022-12-25T17:16:37.112Z,6.68
2022-12-25T17:19:07.982Z,6.75
2022-12-25T17:21:38.112Z,6.82
2022-12-25T17:24:08.212Z,6.94
2022-12-25T17:26:36.059Z,6.80
2022-12-25T17:29:04.277Z,6.77
2022-12-25T17:31:32.504Z,6.76
2022-12-25T17:34:01.634Z,6.75
2022-12-25T17:36:29.785Z,6.71
2022-12-25T17:38:57.756Z,6.44
2022-12-25T17:41:26.930Z,6.34
2022-12-25T17:43:54.813Z,6.22
2022-12-25T17:46:24.619Z,6.12
2022-12-25T17:48:53.507Z,6.17
2022-12-25T17:51:23.744Z,6.25
2022-12-25T17:53:52.878Z,5.97
2022-12-25T17:56:21.730Z,6.07
2022-12-25T17:58:53.037Z,5.88
2022-12-25T18:01:21.561Z,5.86
2022-12-25T18:03:50.023Z,5.81
2022-12-25T18:06:19.742Z,5.92
2022-12-25T18:08:48.586Z,5.92
2022-12-25T18:11:18.344Z,6.08
2022-12-25T18:13:48.640Z,6.13
2022-12-25T18:16:18.773Z,6.23
2022-12-25T18:18:51.869Z,6.19
2022-12-25T18:21:21.860Z,6.07
2022-12-25T18:23:49.961Z,6.00
2022-12-25T18:26:18.618Z,6.05
2022-12-25T18:28:46.388Z,6.01
2022-12-25T18:31:17.011Z,6.09
2022-12-25T18:33:46.440Z,5.87
2022-12-25T18:36:15.340Z,5.83
2022-12-25T18:38:43.841Z,5.84
2022-12-25T18:41:12.494Z,5.96
2022-12-25T18:43:52.221Z,6.06
2022-12-25T18:46:24.588Z,6.27
2022-12-25T18:48:54.596Z,6.10
2022-12-25T18:51:22.531Z,6.22
2022-12-25T18:53:51.539Z,6.30
2022-12-25T18:56:19.913Z,6.38
2022-12-25T18:58:48.536Z,6.42
2022-12-25T19:01:18.514Z,6.50
2022-12-25T19:03:48.915Z,6.51
2022-12-25T19:06:23.899Z,6.55
2022-12-25T19:08:52.537Z,6.47
2022-12-25T19:11:20.710Z,6.46
2022-12-25T19:13:48.982Z,6.56
2022-12-25T19:16:16.861Z,6.40
2022-12-25T19:18:45.044Z,6.58
2022-12-25T19:21:12.959Z,6.59
2022-12-25T19:23:42.118Z,6.61
2022-12-25T19:26:11.964Z,6.42
2022-12-25T19:28:40.493Z,6.53
2022-12-25T19:31:10.248Z,6.64
2022-12-25T19:33:39.512Z,6.63
2022-12-25T19:36:09.743Z,6.69
2022-12-25T19:38:38.077Z,6.63
2022-12-25T19:41:09.354Z,6.62
2022-12-25T19:43:40.486Z,6.56
2022-12-25T19:46:10.012Z,6.59
2022-12-25T19:48:37.939Z,6.73
2022-12-25T19:51:06.069Z,6.63
2022-12-25T19:53:33.937Z,6.80
2022-12-25T19:56:03.199Z,6.78
2022-12-25T19:58:32.632Z,6.80
2022-12-25T20:01:01.635Z,6.88
2022-12-25T20:03:29.768Z,6.89
2022-12-25T20:05:57.732Z,6.83
2022-12-25T20:08:26.002Z,6.71
2022-12-25T20:10:53.758Z,6.63
2022-12-25T20:13:22.625Z,6.42
2022-12-25T20:15:51.831Z,6.58
2022-12-25T20:18:20.849Z,6.58
2022-12-25T20:20:48.640Z,6.54
2022-12-25T20:23:16.348Z,6.58
2022-12-25T20:25:44.090Z,6.52
2022-12-25T20:28:12.217Z,6.51
2022-12-25T20:30:40.863Z,6.43
2022-12-25T20:33:10.168Z,6.42
2022-12-25T20:35:38.096Z,6.36
2022-12-25T20:38:05.874Z,6.31
2022-12-25T20:40:53.072Z,6.08
2022-12-25T20:43:21.367Z,6.01
2022-12-25T20:45:52.563Z,5.93
2022-12-25T20:48:21.790Z,6.11
2022-12-25T20:50:50.055Z,5.96
2022-12-25T20:53:18.042Z,5.85
2022-12-25T20:55:47.032Z,6.08
2022-12-25T20:58:15.791Z,6.16
2022-12-25T21:00:45.533Z,6.16
2022-12-25T21:03:13.431Z,6.19
2022-12-25T21:05:49.872Z,6.20
2022-12-25T21:08:18.109Z,6.29
2022-12-25T21:10:50.287Z,6.36
2022-12-25T21:13:18.328Z,6.26
2022-12-25T21:15:46.915Z,6.22
2022-12-25T21:18:15.182Z,6.18
2022-12-25T21:20:47.261Z,6.01
2022-12-25T21:23:15.033Z,6.18
2022-12-25T21:25:42.879Z,6.12
2022-12-25T21:28:10.628Z,5.89
2022-12-25T21:30:38.538Z,6.01
2022-12-25T21:33:24.246Z,6.06
2022-12-25T21:35:53.400Z,6.03
2022-12-25T21:38:21.181Z,6.10
2022-12-25T21:40:48.909Z,6.17
2022-12-25T21:43:16.672Z,6.15
2022-12-25T21:45:44.505Z,6.05
2022-12-25T21:48:13.323Z,5.99
2022-12-25T21:50:58.570Z,6.00
2022-12-25T21:53:27.703Z,6.03
2022-12-25T21:56:00.530Z,6.04
2022-12-25T21:58:28.434Z,6.10
2022-12-25T22:00:56.453Z,6.09
2022-12-25T22:03:25.112Z,5.96
2022-12-25T22:06:10.276Z,5.94
2022-12-25T22:08:39.533Z,5.82
2022-12-25T22:11:27.322Z,6.05
2022-12-25T22:14:12.488Z,6.03
2022-12-25T22:16:57.912Z,6.00
2022-12-25T22:19:45.093Z,5.96
2022-12-25T22:22:13.343Z,5.84
2022-12-25T22:24:42.583Z,5.89
2022-12-25T22:27:10.476Z,5.87
2022-12-25T22:29:38.422Z,5.77
2022-12-25T22:32:07.039Z,5.72
2022-12-25T22:34:35.380Z,5.80
2022-12-25T22:37:03.747Z,5.84
2022-12-25T22:39:32.032Z,5.89
2022-12-25T22:42:02.617Z,6.15
2022-12-25T22:44:32.349Z,6.10
2022-12-25T22:47:00.504Z,6.10
2022-12-25T22:49:28.943Z,6.11
2022-12-25T22:51:57.227Z,5.94
2022-12-25T22:54:26.047Z,5.90
2022-12-25T22:56:54.437Z,5.89
2022-12-25T22:59:23.789Z,5.92
2022-12-25T23:01:52.205Z,6.10
2022-12-25T23:04:20.180Z,6.14
2022-12-25T23:06:48.719Z,6.09
2022-12-25T23:09:24.159Z,6.20
2022-12-25T23:11:52.546Z,6.20
2022-12-25T23:14:37.816Z,6.03
2022-12-25T23:17:28.564Z,5.91
2022-12-25T23:20:14.969Z,5.88
2022-12-25T23:23:00.904Z,5.78
2022-12-25T23:25:46.655Z,5.91
2022-12-25T23:28:14.486Z,5.91
2022-12-25T23:30:41.192Z,5.85
2022-12-25T23:33:10.304Z,5.71
2022-12-25T23:35:38.033Z,5.56
2022-12-25T23:38:05.757Z,5.32
2022-12-25T23:40:33.579Z,5.28
2022-12-25T23:43:01.334Z,5.37
2022-12-25T23:45:29.775Z,5.05
2022-12-25T23:47:57.888Z,5.09
2022-12-25T23:50:26.971Z,5.02
2022-12-25T23:52:54.745Z,5.05
2022-12-25T23:55:24.498Z,5.00
2022-12-25T23:57:52.316Z,5.06
